Time;durP1;ratioP1;P1;durP2;ratioP2;P2;SDS_P1;SDS_P2;PMS_P1;PMS_P2;Temp;Humidity;BMP_temperature;BMP_pressure;BME280_temperature;BME280_humidity;BME280_pressure;Samples;Min_cycle;Max_cycle;Signal;HPM_P1;HPM_P2
2021/04/30 00:00:09;;;;;;;4.43;2.70;;;;;;;;;;5046955;28;20034;-80
2021/04/30 00:02:36;;;;;;;3.17;2.30;;;;;;;;;;5045298;28;20085;-81
2021/04/30 00:05:03;;;;;;;6.30;4.80;;;;;;;;;;5047466;28;20017;-82
2021/04/30 00:07:29;;;;;;;6.53;3.67;;;;;;;;;;5044049;28;20017;-80
2021/04/30 00:09:56;;;;;;;3.35;2.92;;;;;;;;;;5043648;28;20401;-80
2021/04/30 00:12:22;;;;;;;2.90;2.60;;;;;;;;;;5029209;28;20131;-79
2021/04/30 00:14:48;;;;;;;4.70;2.78;;;;;;;;;;5053640;28;20059;-79
2021/04/30 00:17:14;;;;;;;2.40;2.17;;;;;;;;;;5045096;28;20029;-81
2021/04/30 00:19:40;;;;;;;3.50;3.20;;;;;;;;;;5044769;28;20076;-79
2021/04/30 00:22:06;;;;;;;2.65;2.33;;;;;;;;;;5063071;28;20036;-81
2021/04/30 00:24:32;;;;;;;1.75;1.60;;;;;;;;;;5064362;28;20033;-82
2021/04/30 00:26:58;;;;;;;2.67;1.77;;;;;;;;;;5064044;28;20053;-79
2021/04/30 00:29:24;;;;;;;2.28;2.08;;;;;;;;;;5041330;28;20022;-81
2021/04/30 00:31:50;;;;;;;2.08;1.90;;;;;;;;;;5041694;28;20397;-79
2021/04/30 00:34:16;;;;;;;4.00;2.40;;;;;;;;;;5063916;28;20022;-79
2021/04/30 00:36:42;;;;;;;2.40;2.20;;;;;;;;;;5064491;28;20032;-80
2021/04/30 00:39:08;;;;;;;2.13;2.00;;;;;;;;;;5065056;28;20036;-82
2021/04/30 00:41:35;;;;;;;2.30;2.17;;;;;;;;;;5060072;28;20077;-81
2021/04/30 00:44:04;;;;;;;2.78;2.20;;;;;;;;;;5047654;28;20112;-80
2021/04/30 00:46:31;;;;;;;2.28;1.75;;;;;;;;;;5046379;28;20032;-81
2021/04/30 00:48:57;;;;;;;1.50;1.40;;;;;;;;;;5046623;28;20022;-81
2021/04/30 00:51:23;;;;;;;2.22;1.90;;;;;;;;;;5049569;28;20174;-80
2021/04/30 00:53:49;;;;;;;2.05;1.95;;;;;;;;;;5066978;28;20476;-81
2021/04/30 00:56:15;;;;;;;3.50;2.33;;;;;;;;;;5065587;28;20066;-81
2021/04/30 00:58:42;;;;;;;2.60;1.85;;;;;;;;;;5064462;28;20029;-81
2021/04/30 01:01:08;;;;;;;1.90;1.60;;;;;;;;;;5030367;28;20546;-81
2021/04/30 01:03:35;;;;;;;1.75;1.65;;;;;;;;;;5065831;28;20035;-81
2021/04/30 01:06:01;;;;;;;2.55;2.10;;;;;;;;;;5065041;28;20029;-79
2021/04/30 01:08:27;;;;;;;2.38;1.90;;;;;;;;;;5066474;28;20029;-80
2021/04/30 01:10:53;;;;;;;2.10;1.90;;;;;;;;;;5067942;28;20112;-79
2021/04/30 01:13:20;;;;;;;2.70;1.77;;;;;;;;;;5065253;28;20031;-78
2021/04/30 01:15:46;;;;;;;1.92;1.83;;;;;;;;;;5052695;28;20108;-78
2021/04/30 01:18:12;;;;;;;2.30;2.15;;;;;;;;;;5053377;28;20030;-79
2021/04/30 01:20:38;;;;;;;1.13;1.02;;;;;;;;;;5055544;28;20056;-79
2021/04/30 01:23:04;;;;;;;1.70;1.60;;;;;;;;;;5065853;28;20101;-78
2021/04/30 01:25:35;;;;;;;2.30;1.75;;;;;;;;;;5075908;28;20093;-79
2021/04/30 01:28:02;;;;;;;2.65;2.42;;;;;;;;;;5074999;28;20037;-81
2021/04/30 01:30:29;;;;;;;2.42;2.22;;;;;;;;;;5050611;28;20025;-80
2021/04/30 01:32:55;;;;;;;1.60;1.50;;;;;;;;;;5051180;28;20033;-81
2021/04/30 01:35:26;;;;;;;3.20;2.90;;;;;;;;;;5066631;28;20032;-82
2021/04/30 01:37:53;;;;;;;2.30;2.10;;;;;;;;;;5064461;28;20032;-82
2021/04/30 01:40:21;;;;;;;1.85;1.75;;;;;;;;;;5064515;28;20040;-81
2021/04/30 01:42:58;;;;;;;1.42;1.33;;;;;;;;;;5053553;28;20031;-82
2021/04/30 01:45:24;;;;;;;1.38;1.27;;;;;;;;;;5037875;28;20055;-80
2021/04/30 01:47:50;;;;;;;1.67;1.58;;;;;;;;;;5043687;28;20032;-80
2021/04/30 01:50:16;;;;;;;1.45;1.35;;;;;;;;;;5044794;28;20057;-81
2021/04/30 01:52:43;;;;;;;2.72;2.13;;;;;;;;;;5048798;28;20029;-82
2021/04/30 01:55:09;;;;;;;1.80;1.70;;;;;;;;;;5049468;28;20032;-81
2021/04/30 01:57:36;;;;;;;2.30;1.85;;;;;;;;;;5046360;28;20104;-81
2021/04/30 02:00:05;;;;;;;1.42;1.33;;;;;;;;;;5047725;28;20022;-81
2021/04/30 02:02:51;;;;;;;1.63;1.48;;;;;;;;;;5048315;28;20029;-81
2021/04/30 02:05:17;;;;;;;1.50;1.40;;;;;;;;;;5048435;28;20021;-82
2021/04/30 02:07:44;;;;;;;1.55;1.35;;;;;;;;;;5061163;28;20061;-80
2021/04/30 02:10:28;;;;;;;1.60;1.50;;;;;;;;;;5072632;28;20089;-79
2021/04/30 02:12:54;;;;;;;1.17;1.17;;;;;;;;;;5041916;28;20036;-80
2021/04/30 02:15:22;;;;;;;1.33;1.27;;;;;;;;;;5047796;28;20028;-82
2021/04/30 02:17:48;;;;;;;1.70;1.60;;;;;;;;;;5041558;28;20084;-82
2021/04/30 02:20:15;;;;;;;1.65;1.55;;;;;;;;;;5053635;28;20037;-79
2021/04/30 02:22:41;;;;;;;1.48;1.23;;;;;;;;;;5048750;28;20053;-79
2021/04/30 02:25:09;;;;;;;1.60;1.50;;;;;;;;;;5052254;28;20036;-80
2021/04/30 02:27:35;;;;;;;1.30;1.08;;;;;;;;;;5057590;28;20025;-79
2021/04/30 02:30:01;;;;;;;1.30;1.20;;;;;;;;;;5052886;28;20036;-79
2021/04/30 02:32:30;;;;;;;1.25;1.15;;;;;;;;;;5034170;28;20029;-78
2021/04/30 02:34:56;;;;;;;1.10;1.10;;;;;;;;;;5034215;28;20022;-80
2021/04/30 02:37:24;;;;;;;1.15;1.15;;;;;;;;;;5047290;28;20068;-81
2021/04/30 02:39:50;;;;;;;1.30;1.17;;;;;;;;;;5065915;28;20057;-81
2021/04/30 02:42:16;;;;;;;1.63;1.52;;;;;;;;;;5045812;28;20036;-79
2021/04/30 02:44:44;;;;;;;1.50;1.40;;;;;;;;;;5053419;28;20037;-81
2021/04/30 02:47:10;;;;;;;2.13;1.90;;;;;;;;;;5030700;28;20030;-81
2021/04/30 02:49:46;;;;;;;1.65;1.55;;;;;;;;;;5029578;28;20029;-80
2021/04/30 02:52:15;;;;;;;2.40;2.10;;;;;;;;;;5030606;28;20058;-82
2021/04/30 02:54:41;;;;;;;1.75;1.65;;;;;;;;;;5029044;28;20116;-82
2021/04/30 02:57:07;;;;;;;1.27;1.25;;;;;;;;;;5046509;28;20049;-80
2021/04/30 02:59:33;;;;;;;1.90;1.80;;;;;;;;;;5045973;28;20025;-80
2021/04/30 03:02:01;;;;;;;1.35;1.25;;;;;;;;;;5061871;28;20037;-83
2021/04/30 03:04:27;;;;;;;3.15;1.85;;;;;;;;;;5047807;28;20029;-81
2021/04/30 03:06:54;;;;;;;1.80;1.50;;;;;;;;;;5049522;28;20120;-80
2021/04/30 03:09:20;;;;;;;2.13;1.85;;;;;;;;;;5060323;28;20456;-80
2021/04/30 03:11:46;;;;;;;2.30;2.10;;;;;;;;;;5047561;28;20427;-80
2021/04/30 03:14:12;;;;;;;1.92;1.75;;;;;;;;;;5037142;28;20110;-80
2021/04/30 03:16:41;;;;;;;1.85;1.58;;;;;;;;;;5046106;28;20079;-80
2021/04/30 03:19:09;;;;;;;1.88;1.77;;;;;;;;;;5029959;28;20033;-82
2021/04/30 03:21:35;;;;;;;1.65;1.55;;;;;;;;;;5029533;28;20022;-84
2021/04/30 03:24:01;;;;;;;2.28;2.03;;;;;;;;;;5028810;28;20029;-83
2021/04/30 03:26:27;;;;;;;3.83;2.63;;;;;;;;;;5046816;28;20033;-81
2021/04/30 03:28:53;;;;;;;2.35;2.20;;;;;;;;;;5065968;22;20045;-76
2021/04/30 03:31:19;;;;;;;1.60;1.50;;;;;;;;;;5019850;28;20073;-75
2021/04/30 03:33:46;;;;;;;1.80;1.50;;;;;;;;;;5032099;28;20041;-75
2021/04/30 03:36:12;;;;;;;1.50;1.40;;;;;;;;;;5038415;28;20021;-75
2021/04/30 03:38:38;;;;;;;2.60;1.80;;;;;;;;;;5055585;28;20017;-76
2021/04/30 03:41:04;;;;;;;2.47;2.13;;;;;;;;;;5043352;28;20108;-76
2021/04/30 03:43:31;;;;;;;2.58;1.58;;;;;;;;;;5035422;28;20244;-77
2021/04/30 03:45:58;;;;;;;1.20;1.17;;;;;;;;;;5034559;28;20078;-76
2021/04/30 03:48:27;;;;;;;2.17;1.58;;;;;;;;;;5035995;28;20577;-77
2021/04/30 03:50:54;;;;;;;1.50;1.40;;;;;;;;;;5034801;28;20049;-78
2021/04/30 03:53:21;;;;;;;2.00;1.70;;;;;;;;;;5035525;28;20472;-77
2021/04/30 03:55:47;;;;;;;1.67;1.58;;;;;;;;;;5041488;28;20036;-78
2021/04/30 03:58:13;;;;;;;1.33;1.23;;;;;;;;;;5045769;28;20049;-77
2021/04/30 04:00:39;;;;;;;1.10;1.10;;;;;;;;;;5052172;28;20501;-77
2021/04/30 04:03:05;;;;;;;4.53;3.38;;;;;;;;;;5046521;28;20456;-77
2021/04/30 04:05:31;;;;;;;6.10;4.90;;;;;;;;;;5019287;28;20109;-77
2021/04/30 04:07:57;;;;;;;6.50;5.35;;;;;;;;;;5016231;28;20102;-76
2021/04/30 04:10:23;;;;;;;9.18;4.93;;;;;;;;;;5016211;28;20105;-76
2021/04/30 04:12:50;;;;;;;6.65;4.55;;;;;;;;;;5040299;28;20450;-76
2021/04/30 04:15:16;;;;;;;8.60;4.80;;;;;;;;;;5034440;28;20175;-77
2021/04/30 04:17:43;;;;;;;4.40;3.90;;;;;;;;;;5036449;28;20458;-77
2021/04/30 04:20:10;;;;;;;4.18;3.17;;;;;;;;;;5035579;28;20030;-77
2021/04/30 04:22:36;;;;;;;5.93;4.45;;;;;;;;;;5036214;28;20016;-77
2021/04/30 04:25:03;;;;;;;6.90;4.82;;;;;;;;;;5073949;28;20094;-78
2021/04/30 04:27:29;;;;;;;8.40;5.85;;;;;;;;;;5074928;28;20029;-78
2021/04/30 04:29:55;;;;;;;7.05;6.28;;;;;;;;;;5075861;28;20024;-77
2021/04/30 04:32:21;;;;;;;10.48;8.23;;;;;;;;;;5065620;28;20449;-78
2021/04/30 04:34:47;;;;;;;9.55;6.55;;;;;;;;;;5055021;28;20052;-77
2021/04/30 04:37:13;;;;;;;7.80;6.68;;;;;;;;;;5055593;28;20036;-76
2021/04/30 04:39:39;;;;;;;7.82;5.75;;;;;;;;;;5055111;28;20022;-76
2021/04/30 04:42:06;;;;;;;7.53;5.50;;;;;;;;;;5055394;28;20072;-76
2021/04/30 04:44:33;;;;;;;9.95;6.30;;;;;;;;;;5066608;28;20021;-77
2021/04/30 04:46:59;;;;;;;12.73;7.30;;;;;;;;;;5055443;28;20052;-77
2021/04/30 04:49:29;;;;;;;9.00;7.28;;;;;;;;;;5054797;28;20040;-76
2021/04/30 04:51:55;;;;;;;9.05;7.50;;;;;;;;;;5055756;28;20052;-76
2021/04/30 04:54:21;;;;;;;11.75;8.95;;;;;;;;;;5055192;28;20037;-76
2021/04/30 04:56:47;;;;;;;8.90;8.00;;;;;;;;;;5056303;28;20358;-75
2021/04/30 04:59:14;;;;;;;9.70;8.65;;;;;;;;;;5057675;28;20274;-76
2021/04/30 05:01:40;;;;;;;8.27;7.10;;;;;;;;;;5067315;28;20035;-76
2021/04/30 05:04:06;;;;;;;11.15;9.38;;;;;;;;;;5059683;28;20077;-75
2021/04/30 05:06:32;;;;;;;11.85;8.77;;;;;;;;;;5055566;28;20010;-76
2021/04/30 05:08:58;;;;;;;11.27;9.52;;;;;;;;;;5055304;28;20025;-75
2021/04/30 05:11:24;;;;;;;10.93;8.65;;;;;;;;;;5052160;28;20041;-75
2021/04/30 05:13:51;;;;;;;12.95;9.65;;;;;;;;;;5067209;28;20036;-75
2021/04/30 05:16:17;;;;;;;10.93;8.60;;;;;;;;;;5074828;28;20073;-76
2021/04/30 05:18:43;;;;;;;9.60;7.68;;;;;;;;;;5075067;28;20036;-77
2021/04/30 05:21:11;;;;;;;10.52;8.57;;;;;;;;;;5069167;28;20028;-76
2021/04/30 05:23:38;;;;;;;10.48;8.35;;;;;;;;;;5055653;28;20034;-76
2021/04/30 05:26:05;;;;;;;12.32;8.52;;;;;;;;;;5050221;28;20067;-77
2021/04/30 05:28:31;;;;;;;13.00;10.10;;;;;;;;;;5062236;28;20018;-77
2021/04/30 05:30:58;;;;;;;13.68;10.70;;;;;;;;;;5051710;28;20034;-77
2021/04/30 05:33:24;;;;;;;10.95;8.60;;;;;;;;;;5056831;28;20038;-77
2021/04/30 05:35:50;;;;;;;15.60;11.85;;;;;;;;;;5053140;28;20048;-76
2021/04/30 05:38:17;;;;;;;18.23;11.90;;;;;;;;;;5030289;28;20038;-77
2021/04/30 05:40:43;;;;;;;14.18;11.45;;;;;;;;;;5018675;28;20022;-77
2021/04/30 05:43:09;;;;;;;12.70;10.32;;;;;;;;;;5017274;28;20036;-76
2021/04/30 05:45:36;;;;;;;11.55;9.00;;;;;;;;;;5018634;28;20452;-77
2021/04/30 05:48:02;;;;;;;12.05;10.45;;;;;;;;;;5016567;28;20030;-77
2021/04/30 05:50:28;;;;;;;12.40;8.80;;;;;;;;;;5016420;28;20517;-77
2021/04/30 05:52:55;;;;;;;17.13;11.15;;;;;;;;;;5025468;28;20387;-77
2021/04/30 05:55:21;;;;;;;10.77;9.10;;;;;;;;;;5037172;28;20032;-77
2021/04/30 05:57:47;;;;;;;18.33;10.90;;;;;;;;;;5050997;28;20025;-77
2021/04/30 06:00:13;;;;;;;11.45;9.15;;;;;;;;;;5049348;28;20057;-78
2021/04/30 06:02:40;;;;;;;10.88;9.02;;;;;;;;;;5056411;28;20040;-77
2021/04/30 06:05:06;;;;;;;13.38;7.50;;;;;;;;;;5055223;28;20029;-77
2021/04/30 06:07:33;;;;;;;16.02;12.05;;;;;;;;;;5053581;28;20028;-77
2021/04/30 06:10:00;;;;;;;13.73;10.63;;;;;;;;;;5046494;28;20048;-78
2021/04/30 06:12:26;;;;;;;12.70;10.85;;;;;;;;;;5047122;28;20072;-78
2021/04/30 06:14:52;;;;;;;12.50;9.48;;;;;;;;;;5036188;28;20022;-78
2021/04/30 06:17:21;;;;;;;10.07;7.53;;;;;;;;;;5036307;28;20113;-78
2021/04/30 06:19:47;;;;;;;6.88;6.18;;;;;;;;;;5036345;28;20466;-77
2021/04/30 06:22:13;;;;;;;11.20;9.90;;;;;;;;;;5040803;28;20017;-77
2021/04/30 06:24:39;;;;;;;12.52;10.82;;;;;;;;;;5044706;28;20028;-78
2021/04/30 06:27:05;;;;;;;11.80;9.20;;;;;;;;;;5040226;28;20022;-78
2021/04/30 06:29:31;;;;;;;10.02;8.80;;;;;;;;;;5036576;28;20033;-78
2021/04/30 06:31:58;;;;;;;15.55;10.05;;;;;;;;;;5036890;28;20074;-78
2021/04/30 06:34:25;;;;;;;10.68;8.38;;;;;;;;;;5046751;28;20071;-77
2021/04/30 06:36:53;;;;;;;15.77;12.73;;;;;;;;;;5042030;28;20029;-78
2021/04/30 06:39:19;;;;;;;13.95;10.57;;;;;;;;;;5037436;28;20014;-77
2021/04/30 06:41:46;;;;;;;11.40;8.00;;;;;;;;;;5022622;28;20474;-78
2021/04/30 06:44:12;;;;;;;10.55;8.20;;;;;;;;;;5027394;28;20462;-80
2021/04/30 06:46:45;;;;;;;17.02;13.57;;;;;;;;;;5045320;28;20018;-78
2021/04/30 06:49:11;;;;;;;18.85;13.60;;;;;;;;;;5027973;28;20022;-77
2021/04/30 06:51:38;;;;;;;17.40;13.43;;;;;;;;;;5029471;28;20029;-78
2021/04/30 06:54:05;;;;;;;18.98;12.73;;;;;;;;;;5024522;28;20025;-76
2021/04/30 06:56:31;;;;;;;14.20;10.93;;;;;;;;;;5030672;28;20021;-75
2021/04/30 06:58:58;;;;;;;15.15;11.80;;;;;;;;;;5043144;28;20079;-78
2021/04/30 07:01:24;;;;;;;12.02;9.57;;;;;;;;;;5065123;28;20040;-79
2021/04/30 07:03:50;;;;;;;10.45;8.43;;;;;;;;;;5051107;28;20025;-79
2021/04/30 07:06:20;;;;;;;15.75;11.55;;;;;;;;;;5038928;28;20022;-78
2021/04/30 07:08:47;;;;;;;10.43;7.82;;;;;;;;;;5039426;28;20478;-78
2021/04/30 07:11:13;;;;;;;12.48;10.60;;;;;;;;;;5040609;28;20418;-77
2021/04/30 07:13:39;;;;;;;18.25;12.20;;;;;;;;;;5044648;28;20101;-78
2021/04/30 07:16:06;;;;;;;9.40;8.40;;;;;;;;;;5035902;28;20025;-77
2021/04/30 07:18:33;;;;;;;12.13;9.55;;;;;;;;;;5037044;28;20070;-78
2021/04/30 07:20:59;;;;;;;10.88;8.93;;;;;;;;;;5036736;28;20034;-77
2021/04/30 07:23:26;;;;;;;9.20;7.15;;;;;;;;;;5037852;28;20021;-78
2021/04/30 07:25:52;;;;;;;8.40;7.13;;;;;;;;;;5037356;28;20025;-77
2021/04/30 07:28:18;;;;;;;9.20;7.65;;;;;;;;;;5034775;28;20035;-77
2021/04/30 07:30:53;;;;;;;9.50;7.53;;;;;;;;;;5053331;28;20116;-78
2021/04/30 07:33:19;;;;;;;13.75;10.40;;;;;;;;;;5056612;28;20025;-77
2021/04/30 07:35:45;;;;;;;10.88;9.40;;;;;;;;;;5047162;28;20026;-77
2021/04/30 07:38:12;;;;;;;11.50;9.38;;;;;;;;;;5036672;28;20017;-77
2021/04/30 07:40:39;;;;;;;13.75;11.50;;;;;;;;;;5041391;28;20093;-77
2021/04/30 07:43:07;;;;;;;16.08;11.98;;;;;;;;;;5046708;28;20013;-78
2021/04/30 07:45:34;;;;;;;14.98;12.95;;;;;;;;;;5061541;28;20093;-77
2021/04/30 07:48:01;;;;;;;15.50;11.52;;;;;;;;;;5054860;28;20032;-79
2021/04/30 07:50:27;;;;;;;17.00;12.43;;;;;;;;;;5057227;28;20032;-78
2021/04/30 07:52:53;;;;;;;15.60;11.63;;;;;;;;;;5048813;28;20052;-80
2021/04/30 07:55:19;;;;;;;14.70;11.98;;;;;;;;;;5037088;28;20026;-80
2021/04/30 07:57:46;;;;;;;21.15;12.75;;;;;;;;;;5028150;28;20122;-78
2021/04/30 08:00:13;;;;;;;12.25;10.55;;;;;;;;;;5048463;28;20499;-76
2021/04/30 08:02:39;;;;;;;15.75;11.18;;;;;;;;;;5052876;28;20104;-77
2021/04/30 08:05:05;;;;;;;13.70;10.80;;;;;;;;;;5044322;28;20029;-78
2021/04/30 08:07:31;;;;;;;13.35;10.88;;;;;;;;;;5053917;28;20036;-79
2021/04/30 08:09:58;;;;;;;13.50;11.20;;;;;;;;;;5054797;28;20029;-76
2021/04/30 08:12:24;;;;;;;10.02;8.93;;;;;;;;;;5030749;28;20024;-78
2021/04/30 08:14:50;;;;;;;13.20;10.30;;;;;;;;;;5043163;28;20045;-77
2021/04/30 08:17:16;;;;;;;12.75;11.40;;;;;;;;;;5053927;28;20053;-77
2021/04/30 08:19:42;;;;;;;14.60;10.85;;;;;;;;;;5056444;28;20385;-77
2021/04/30 08:22:09;;;;;;;14.02;10.88;;;;;;;;;;5047194;28;20106;-77
2021/04/30 08:24:35;;;;;;;15.82;12.00;;;;;;;;;;5037645;28;20033;-78
2021/04/30 08:27:01;;;;;;;14.35;10.35;;;;;;;;;;5037153;28;20029;-77
2021/04/30 08:29:27;;;;;;;13.15;10.23;;;;;;;;;;5034758;28;20041;-77
2021/04/30 08:31:53;;;;;;;12.52;11.10;;;;;;;;;;5038940;28;20080;-78
2021/04/30 08:34:19;;;;;;;12.48;10.25;;;;;;;;;;5041423;28;20029;-79
2021/04/30 08:36:45;;;;;;;12.85;10.00;;;;;;;;;;5043452;28;20026;-78
2021/04/30 08:39:12;;;;;;;12.90;9.30;;;;;;;;;;5044781;28;20064;-79
2021/04/30 08:41:39;;;;;;;12.95;10.85;;;;;;;;;;5036322;28;20018;-79
2021/04/30 08:44:05;;;;;;;10.90;9.52;;;;;;;;;;5048718;28;20029;-78
2021/04/30 08:46:32;;;;;;;9.70;8.32;;;;;;;;;;5050164;28;20060;-78
2021/04/30 08:49:05;;;;;;;12.23;9.20;;;;;;;;;;5043106;28;20026;-80
2021/04/30 08:51:32;;;;;;;11.07;9.23;;;;;;;;;;5033855;28;20363;-80
2021/04/30 08:53:58;;;;;;;10.20;6.72;;;;;;;;;;5042283;28;20033;-79
2021/04/30 08:56:24;;;;;;;5.03;4.53;;;;;;;;;;5043897;28;20033;-78
2021/04/30 08:58:51;;;;;;;9.68;7.97;;;;;;;;;;5041968;28;20067;-79
2021/04/30 09:01:17;;;;;;;7.70;6.15;;;;;;;;;;5041508;28;20064;-80
2021/04/30 09:03:43;;;;;;;14.20;8.68;;;;;;;;;;5029242;28;20026;-79
2021/04/30 09:06:18;;;;;;;10.38;7.82;;;;;;;;;;5034409;28;20025;-78
2021/04/30 09:08:45;;;;;;;10.35;8.40;;;;;;;;;;5032992;28;20030;-78
2021/04/30 09:11:29;;;;;;;11.07;9.00;;;;;;;;;;5031544;28;20029;-79
2021/04/30 09:14:15;;;;;;;10.43;6.95;;;;;;;;;;5052646;28;20369;-79
2021/04/30 09:17:00;;;;;;;6.88;6.18;;;;;;;;;;5044008;28;20172;-79
2021/04/30 09:19:33;;;;;;;10.80;9.23;;;;;;;;;;5039653;28;20017;-78
2021/04/30 09:22:08;;;;;;;7.63;6.93;;;;;;;;;;5054623;28;20021;-76
2021/04/30 09:24:34;;;;;;;8.20;7.40;;;;;;;;;;5034723;28;20034;-77
2021/04/30 09:27:01;;;;;;;6.20;5.50;;;;;;;;;;5033939;28;20026;-77
2021/04/30 09:29:32;;;;;;;11.95;8.43;;;;;;;;;;5056001;22;20049;-75
2021/04/30 09:31:58;;;;;;;7.30;6.32;;;;;;;;;;5024773;28;20033;-76
2021/04/30 09:34:35;;;;;;;7.78;6.97;;;;;;;;;;5031130;28;20469;-75
2021/04/30 09:37:04;;;;;;;8.98;5.95;;;;;;;;;;5023804;28;20022;-76
2021/04/30 09:39:31;;;;;;;10.45;6.18;;;;;;;;;;5010571;28;20095;-75
2021/04/30 09:42:07;;;;;;;3.70;3.40;;;;;;;;;;5011538;28;20033;-75
2021/04/30 09:44:44;;;;;;;6.75;5.45;;;;;;;;;;5011308;28;20024;-75
2021/04/30 09:47:14;;;;;;;4.53;4.10;;;;;;;;;;4994701;28;20030;-76
2021/04/30 09:49:40;;;;;;;4.72;4.25;;;;;;;;;;4991776;28;20034;-75
2021/04/30 09:52:08;;;;;;;8.05;5.40;;;;;;;;;;4999347;28;20033;-75
2021/04/30 09:54:34;;;;;;;6.18;5.47;;;;;;;;;;5005502;28;20025;-75
2021/04/30 09:57:05;;;;;;;5.90;3.92;;;;;;;;;;5010506;28;20469;-75
2021/04/30 09:59:31;;;;;;;4.95;4.55;;;;;;;;;;5002856;28;20054;-75
2021/04/30 10:02:02;;;;;;;4.15;3.75;;;;;;;;;;5006861;28;20026;-75
2021/04/30 10:04:31;;;;;;;3.85;2.95;;;;;;;;;;4990414;28;20045;-75
2021/04/30 10:06:58;;;;;;;4.07;3.67;;;;;;;;;;4992018;28;20023;-76
2021/04/30 10:09:28;;;;;;;5.13;4.72;;;;;;;;;;5004424;28;20037;-76
2021/04/30 10:11:54;;;;;;;5.32;4.40;;;;;;;;;;5012433;28;20037;-75
2021/04/30 10:14:20;;;;;;;3.88;3.13;;;;;;;;;;5014567;28;20030;-76
2021/04/30 10:16:47;;;;;;;4.53;3.95;;;;;;;;;;5005118;28;20046;-77
2021/04/30 10:19:13;;;;;;;4.97;4.47;;;;;;;;;;4989879;28;20022;-76
2021/04/30 10:21:43;;;;;;;5.95;3.78;;;;;;;;;;5005700;28;20018;-76
2021/04/30 10:24:13;;;;;;;5.40;4.15;;;;;;;;;;5002420;28;20471;-76
2021/04/30 10:26:39;;;;;;;3.00;2.60;;;;;;;;;;5013433;28;20049;-75
2021/04/30 10:29:07;;;;;;;5.13;3.83;;;;;;;;;;5011154;28;20064;-76
2021/04/30 10:31:35;;;;;;;4.20;3.80;;;;;;;;;;5005871;28;20105;-75
2021/04/30 10:34:05;;;;;;;4.53;3.22;;;;;;;;;;5013263;28;20018;-74
2021/04/30 10:36:34;;;;;;;3.17;2.88;;;;;;;;;;5012719;28;20037;-76
2021/04/30 10:39:01;;;;;;;3.33;3.03;;;;;;;;;;5013276;28;20091;-75
2021/04/30 10:41:32;;;;;;;3.40;3.10;;;;;;;;;;4993220;28;20053;-75
2021/04/30 10:44:13;;;;;;;3.30;3.00;;;;;;;;;;4994666;28;20030;-75
2021/04/30 10:46:39;;;;;;;3.67;3.30;;;;;;;;;;4994648;28;20383;-74
2021/04/30 10:49:15;;;;;;;4.32;3.20;;;;;;;;;;4998107;28;20152;-76
2021/04/30 10:51:41;;;;;;;2.55;2.35;;;;;;;;;;5002794;28;20478;-76
2021/04/30 10:54:23;;;;;;;3.92;3.15;;;;;;;;;;4995713;28;20029;-76
2021/04/30 10:57:15;;;;;;;9.33;4.30;;;;;;;;;;4993208;28;20210;-76
2021/04/30 10:59:41;;;;;;;;;;;;;;;;;;4994622;28;20034;-75
2021/04/30 11:02:20;;;;;;;4.82;3.53;;;;;;;;;;5005704;28;19912;-76
2021/04/30 11:05:05;;;;;;;3.40;3.10;;;;;;;;;;4994207;28;20019;-76
2021/04/30 11:07:31;;;;;;;3.78;3.35;;;;;;;;;;5005135;28;20030;-75
2021/04/30 11:09:57;;;;;;;3.63;2.45;;;;;;;;;;4995876;28;20061;-75
2021/04/30 11:12:24;;;;;;;2.67;1.98;;;;;;;;;;5004925;28;20029;-76
2021/04/30 11:15:10;;;;;;;4.93;4.43;;;;;;;;;;4997130;28;20024;-75
2021/04/30 11:17:46;;;;;;;4.70;3.28;;;;;;;;;;5013469;28;20022;-75
2021/04/30 11:20:17;;;;;;;4.50;3.13;;;;;;;;;;4985044;28;20018;-75
2021/04/30 11:22:43;;;;;;;6.15;5.15;;;;;;;;;;4987790;28;20031;-75
2021/04/30 11:25:15;;;;;;;3.22;3.03;;;;;;;;;;5012085;28;20482;-75
2021/04/30 11:27:41;;;;;;;2.28;2.03;;;;;;;;;;5013386;28;20026;-75
2021/04/30 11:30:17;;;;;;;3.97;3.60;;;;;;;;;;5007591;28;20026;-74
2021/04/30 11:32:48;;;;;;;2.80;2.35;;;;;;;;;;4997834;28;20112;-75
2021/04/30 11:35:15;;;;;;;2.50;2.33;;;;;;;;;;5013195;28;20049;-74
2021/04/30 11:37:42;;;;;;;4.28;3.88;;;;;;;;;;5012923;28;20026;-72
2021/04/30 11:40:11;;;;;;;5.05;4.63;;;;;;;;;;5012834;28;20018;-73
2021/04/30 11:42:37;;;;;;;4.65;4.20;;;;;;;;;;4995309;28;20037;-73
2021/04/30 11:45:03;;;;;;;4.20;3.80;;;;;;;;;;4993177;28;20106;-74
2021/04/30 11:47:30;;;;;;;3.55;2.83;;;;;;;;;;4993294;28;20081;-74
2021/04/30 11:52:41;;;;;;;3.72;2.83;;;;;;;;;;4994555;28;20038;-75
2021/04/30 11:55:09;;;;;;;5.05;4.55;;;;;;;;;;5003001;28;20023;-76
2021/04/30 11:57:36;;;;;;;5.10;3.55;;;;;;;;;;4994527;28;20022;-74
2021/04/30 12:00:03;;;;;;;3.25;2.75;;;;;;;;;;4992280;28;20392;-75
2021/04/30 12:02:30;;;;;;;7.93;4.63;;;;;;;;;;4998828;28;20050;-75
2021/04/30 12:04:56;;;;;;;9.10;4.70;;;;;;;;;;4993209;28;20058;-74
2021/04/30 12:07:23;;;;;;;4.10;3.80;;;;;;;;;;4991627;28;20032;-74
2021/04/30 12:09:50;;;;;;;5.00;4.50;;;;;;;;;;5009019;28;20022;-75
2021/04/30 12:12:36;;;;;;;4.35;3.33;;;;;;;;;;4990160;28;20030;-75
2021/04/30 12:15:06;;;;;;;4.30;3.45;;;;;;;;;;4973539;28;20399;-76
2021/04/30 12:17:37;;;;;;;4.03;3.70;;;;;;;;;;4991106;28;20081;-77
2021/04/30 12:20:03;;;;;;;4.97;3.70;;;;;;;;;;5003588;28;20030;-75
2021/04/30 12:22:43;;;;;;;3.65;2.83;;;;;;;;;;5010883;28;20017;-77
2021/04/30 12:25:28;;;;;;;4.95;3.45;;;;;;;;;;5010259;28;20454;-75
2021/04/30 12:28:15;;;;;;;6.47;3.50;;;;;;;;;;5009152;28;20053;-74
2021/04/30 12:30:41;;;;;;;5.22;4.25;;;;;;;;;;4974008;28;20041;-76
2021/04/30 12:33:08;;;;;;;5.22;3.60;;;;;;;;;;4986899;28;20423;-76
2021/04/30 12:35:34;;;;;;;5.70;2.97;;;;;;;;;;4991172;28;20387;-75
2021/04/30 12:38:00;;;;;;;2.42;2.22;;;;;;;;;;4991928;28;20046;-76
2021/04/30 12:40:28;;;;;;;4.60;3.28;;;;;;;;;;4998653;28;20080;-75
2021/04/30 12:43:08;;;;;;;3.42;3.13;;;;;;;;;;4997826;28;20030;-76
2021/04/30 12:45:37;;;;;;;3.38;3.10;;;;;;;;;;5005328;28;20741;-76
2021/04/30 12:48:03;;;;;;;4.30;2.95;;;;;;;;;;5019609;28;20022;-76
2021/04/30 12:50:29;;;;;;;5.88;3.65;;;;;;;;;;5003439;28;20169;-75
2021/04/30 12:52:57;;;;;;;4.18;3.88;;;;;;;;;;5006925;28;20022;-75
2021/04/30 12:55:36;;;;;;;3.45;3.20;;;;;;;;;;4982806;28;20022;-76
2021/04/30 12:58:04;;;;;;;4.07;3.78;;;;;;;;;;4990915;28;20029;-76
2021/04/30 13:00:31;;;;;;;5.55;5.05;;;;;;;;;;4991639;28;20030;-77
2021/04/30 13:02:57;;;;;;;5.93;4.57;;;;;;;;;;5008430;28;20521;-76
2021/04/30 13:05:24;;;;;;;5.07;4.57;;;;;;;;;;5011044;28;20030;-76
2021/04/30 13:07:54;;;;;;;2.78;2.58;;;;;;;;;;5010805;28;20283;-76
2021/04/30 13:10:27;;;;;;;3.25;2.97;;;;;;;;;;5004454;28;20380;-75
2021/04/30 13:13:03;;;;;;;4.05;3.30;;;;;;;;;;4992759;28;20463;-76
2021/04/30 13:15:30;;;;;;;5.13;4.72;;;;;;;;;;4990635;28;20034;-77
2021/04/30 13:17:57;;;;;;;3.58;3.28;;;;;;;;;;4981518;28;20032;-76
2021/04/30 13:20:28;;;;;;;4.03;3.30;;;;;;;;;;5006205;28;20109;-73
2021/04/30 13:23:05;;;;;;;3.22;2.40;;;;;;;;;;5003210;28;20046;-75
2021/04/30 13:25:35;;;;;;;3.95;3.58;;;;;;;;;;5003922;28;20463;-75
2021/04/30 13:28:09;;;;;;;4.28;3.67;;;;;;;;;;5011689;28;20030;-76
2021/04/30 13:30:40;;;;;;;2.80;2.60;;;;;;;;;;5002301;28;20038;-77
2021/04/30 13:33:13;;;;;;;2.85;2.55;;;;;;;;;;5000622;28;20105;-76
2021/04/30 13:35:39;;;;;;;1.90;1.80;;;;;;;;;;4991865;28;20041;-76
2021/04/30 13:38:05;;;;;;;3.65;1.83;;;;;;;;;;4990385;28;20041;-76
2021/04/30 13:40:32;;;;;;;2.22;2.13;;;;;;;;;;4991506;28;20026;-76
2021/04/30 13:43:01;;;;;;;4.40;4.00;;;;;;;;;;4990802;28;20084;-76
2021/04/30 13:45:27;;;;;;;3.00;2.70;;;;;;;;;;4991877;28;20378;-76
2021/04/30 13:47:54;;;;;;;2.50;1.40;;;;;;;;;;4995306;28;20128;-76
2021/04/30 13:50:23;;;;;;;2.63;2.42;;;;;;;;;;4996141;28;20058;-76
2021/04/30 13:52:49;;;;;;;1.63;1.45;;;;;;;;;;5011802;28;20030;-75
2021/04/30 13:55:15;;;;;;;1.98;1.60;;;;;;;;;;5012514;28;20038;-75
2021/04/30 13:57:41;;;;;;;1.50;1.40;;;;;;;;;;4985696;28;20027;-76
2021/04/30 14:00:08;;;;;;;2.95;2.50;;;;;;;;;;4989527;28;20061;-75
2021/04/30 14:02:34;;;;;;;2.15;2.05;;;;;;;;;;5004700;28;20029;-75
2021/04/30 14:05:00;;;;;;;2.17;1.98;;;;;;;;;;5009965;28;20025;-74
2021/04/30 14:07:26;;;;;;;3.00;1.73;;;;;;;;;;5016070;28;20514;-75
2021/04/30 14:09:52;;;;;;;1.15;1.10;;;;;;;;;;5016192;28;20030;-76
2021/04/30 14:12:18;;;;;;;2.50;2.22;;;;;;;;;;5023543;28;20494;-74
2021/04/30 14:14:45;;;;;;;3.58;2.97;;;;;;;;;;5023981;28;20030;-75
2021/04/30 14:17:11;;;;;;;4.00;2.28;;;;;;;;;;5012552;28;20018;-75
2021/04/30 14:19:38;;;;;;;2.55;2.35;;;;;;;;;;4997009;28;20028;-75
2021/04/30 14:22:04;;;;;;;1.83;1.73;;;;;;;;;;4995992;28;20031;-76
2021/04/30 14:24:31;;;;;;;4.53;1.75;;;;;;;;;;4995303;28;20027;-76
2021/04/30 14:26:57;;;;;;;3.15;1.80;;;;;;;;;;4997566;28;20094;-74
2021/04/30 14:29:23;;;;;;;1.42;1.33;;;;;;;;;;4996257;28;20034;-75
2021/04/30 14:31:49;;;;;;;5.38;3.55;;;;;;;;;;5009248;28;20121;-75
2021/04/30 14:34:18;;;;;;;3.63;2.47;;;;;;;;;;5007493;28;20386;-75
2021/04/30 14:36:44;;;;;;;2.88;2.17;;;;;;;;;;5003275;28;20030;-74
2021/04/30 14:39:11;;;;;;;4.22;2.75;;;;;;;;;;4996248;28;20023;-75
2021/04/30 14:41:37;;;;;;;2.58;2.20;;;;;;;;;;5010503;28;20041;-75
2021/04/30 14:44:04;;;;;;;2.30;2.05;;;;;;;;;;5015606;28;20030;-75